createdAt,value
2023-10-14T00:01:47.680Z,14.46
2023-10-14T00:04:37.122Z,14.44
2023-10-14T00:07:45.641Z,14.42
2023-10-14T00:10:34.309Z,14.37
2023-10-14T00:14:02.284Z,14.34
2023-10-14T00:17:30.089Z,14.28
2023-10-14T00:20:57.831Z,14.22
2023-10-14T00:24:25.614Z,14.16
2023-10-14T00:27:36.254Z,14.09
2023-10-14T00:31:03.978Z,14.02
2023-10-14T00:34:12.137Z,13.97
2023-10-14T00:37:39.832Z,13.92
2023-10-14T00:41:07.745Z,13.90
2023-10-14T00:44:35.486Z,13.88
2023-10-14T00:48:03.280Z,13.85
2023-10-14T00:51:31.232Z,13.85
2023-10-14T00:54:21.062Z,13.85
2023-10-14T00:57:48.926Z,13.83
2023-10-14T01:01:16.724Z,13.83
2023-10-14T01:04:44.354Z,13.80
2023-10-14T01:08:13.267Z,13.79
2023-10-14T01:11:23.218Z,13.78
2023-10-14T01:14:51.048Z,13.77
2023-10-14T01:18:19.187Z,13.76
2023-10-14T01:21:46.933Z,13.75
2023-10-14T01:24:35.475Z,13.75
2023-10-14T01:27:05.342Z,13.76
2023-10-14T01:30:33.101Z,13.78
2023-10-14T01:34:00.990Z,13.79
2023-10-14T01:36:50.310Z,13.78
2023-10-14T01:39:58.910Z,13.75
2023-10-14T01:43:26.734Z,13.72
2023-10-14T01:46:54.753Z,13.71
2023-10-14T01:50:03.449Z,13.66
2023-10-14T01:53:32.192Z,13.61
2023-10-14T01:56:21.841Z,13.58
2023-10-14T01:59:49.704Z,13.54
2023-10-14T02:02:47.191Z,13.50
2023-10-14T02:05:57.292Z,13.48
2023-10-14T02:09:07.274Z,13.48
2023-10-14T02:12:17.065Z,13.46
2023-10-14T02:15:44.760Z,13.45
2023-10-14T02:19:12.504Z,13.42
2023-10-14T02:22:00.921Z,13.41
2023-10-14T02:25:28.613Z,13.39
2023-10-14T02:28:37.120Z,13.39
2023-10-14T02:32:05.032Z,13.39
2023-10-14T02:34:54.454Z,13.39
2023-10-14T02:38:02.961Z,13.38
2023-10-14T02:41:30.665Z,13.37
2023-10-14T02:44:39.365Z,13.35
2023-10-14T02:47:48.324Z,13.34
2023-10-14T02:51:16.108Z,13.32
2023-10-14T02:54:44.233Z,13.32
2023-10-14T02:57:53.182Z,13.30
2023-10-14T03:01:21.020Z,13.29
2023-10-14T03:04:49.093Z,13.30
2023-10-14T03:07:59.238Z,13.30
2023-10-14T03:11:08.137Z,13.30
2023-10-14T03:14:16.382Z,13.30
2023-10-14T03:17:44.194Z,13.31
2023-10-14T03:20:53.281Z,13.32
2023-10-14T03:24:21.166Z,13.32
2023-10-14T03:27:48.991Z,13.34
2023-10-14T03:31:16.818Z,13.34
2023-10-14T03:34:44.470Z,13.34
2023-10-14T03:38:12.615Z,13.34
2023-10-14T03:41:21.635Z,13.34
2023-10-14T03:44:49.342Z,13.34
2023-10-14T03:48:17.445Z,13.33
2023-10-14T03:51:45.273Z,13.33
2023-10-14T03:55:13.369Z,13.33
2023-10-14T03:58:02.976Z,13.30
2023-10-14T04:01:31.018Z,13.26
2023-10-14T04:04:39.583Z,13.20
2023-10-14T04:07:48.998Z,13.16
2023-10-14T04:10:37.335Z,13.13
2023-10-14T04:13:46.993Z,13.10
2023-10-14T04:17:15.255Z,13.05
2023-10-14T04:20:42.934Z,13.05
2023-10-14T04:23:33.830Z,13.05
2023-10-14T04:27:01.155Z,13.05
2023-10-14T04:30:09.864Z,13.02
2023-10-14T04:33:37.896Z,12.99
2023-10-14T04:37:05.849Z,12.98
2023-10-14T04:40:14.674Z,12.97
2023-10-14T04:43:42.867Z,12.96
2023-10-14T04:47:10.741Z,12.96
2023-10-14T04:50:38.574Z,12.97
2023-10-14T04:54:06.413Z,12.96
2023-10-14T04:57:34.229Z,12.98
2023-10-14T05:00:44.528Z,12.99
2023-10-14T05:04:12.237Z,13.01
2023-10-14T05:07:40.216Z,13.04
2023-10-14T05:11:08.010Z,13.07
2023-10-14T05:14:35.972Z,13.08
2023-10-14T05:18:03.661Z,13.11
2023-10-14T05:21:31.517Z,13.10
2023-10-14T05:24:59.472Z,13.10
2023-10-14T05:28:27.128Z,13.13
2023-10-14T05:31:54.923Z,13.15
2023-10-14T05:35:22.596Z,13.17
2023-10-14T05:38:50.555Z,13.19
2023-10-14T05:42:00.652Z,13.23
2023-10-14T05:45:09.729Z,13.28
2023-10-14T05:48:37.441Z,13.33
2023-10-14T05:51:46.379Z,13.38
2023-10-14T05:55:14.673Z,13.43
2023-10-14T05:58:42.357Z,13.52
2023-10-14T06:02:11.220Z,13.59
2023-10-14T06:05:39.043Z,13.66
2023-10-14T06:09:06.809Z,13.74
2023-10-14T06:12:15.848Z,13.82
2023-10-14T06:15:05.026Z,13.89
2023-10-14T06:18:33.212Z,13.99
2023-10-14T06:21:02.633Z,14.09
2023-10-14T06:24:30.591Z,14.23
2023-10-14T06:27:39.984Z,14.36
2023-10-14T06:31:08.158Z,14.46
2023-10-14T06:34:36.008Z,14.60
2023-10-14T06:37:47.773Z,14.76
2023-10-14T06:40:36.445Z,14.88
2023-10-14T06:43:48.020Z,14.99
2023-10-14T06:47:15.799Z,15.10
2023-10-14T06:50:44.061Z,15.21
2023-10-14T06:53:32.675Z,15.33
2023-10-14T06:57:00.629Z,15.43
2023-10-14T07:00:28.366Z,15.57
2023-10-14T07:03:36.711Z,15.69
2023-10-14T07:06:45.632Z,15.82
2023-10-14T07:10:13.362Z,15.98
2023-10-14T07:13:41.001Z,16.14
2023-10-14T07:17:09.291Z,16.30
2023-10-14T07:20:18.199Z,16.49
2023-10-14T07:23:45.977Z,16.68
2023-10-14T07:27:13.880Z,16.87
2023-10-14T07:30:41.802Z,17.06
2023-10-14T07:33:50.067Z,17.21
2023-10-14T07:37:06.778Z,17.38
2023-10-14T07:40:35.414Z,17.52
2023-10-14T07:43:45.335Z,17.68
2023-10-14T07:47:13.655Z,17.83
2023-10-14T07:50:41.328Z,17.98
2023-10-14T07:53:31.486Z,18.12
2023-10-14T07:56:59.155Z,18.31
2023-10-14T08:00:07.180Z,18.48
2023-10-14T08:03:35.056Z,18.66
2023-10-14T08:07:02.971Z,18.86
2023-10-14T08:10:11.573Z,19.03
2023-10-14T08:13:39.928Z,19.19
2023-10-14T08:17:07.698Z,19.34
2023-10-14T08:20:35.886Z,19.51
2023-10-14T08:23:45.417Z,19.71
2023-10-14T08:27:14.120Z,19.87
2023-10-14T08:30:03.264Z,20.00
2023-10-14T08:33:31.109Z,20.17
2023-10-14T08:36:58.837Z,20.34
2023-10-14T08:40:26.641Z,20.52
2023-10-14T08:43:54.670Z,20.72
2023-10-14T08:47:22.350Z,21.00
2023-10-14T08:50:30.779Z,21.23
2023-10-14T08:53:58.540Z,21.50
2023-10-14T08:57:26.523Z,21.79
2023-10-14T09:00:19.182Z,21.99
2023-10-14T09:03:28.459Z,22.14
2023-10-14T09:06:56.309Z,22.36
2023-10-14T09:10:24.245Z,22.49
2023-10-14T09:13:51.971Z,22.71
2023-10-14T09:17:02.065Z,22.89
2023-10-14T09:19:52.261Z,23.06
2023-10-14T09:23:00.934Z,23.20
2023-10-14T09:26:09.454Z,23.36
2023-10-14T09:29:20.398Z,23.46
2023-10-14T09:32:29.464Z,23.58
2023-10-14T09:35:45.468Z,23.70
2023-10-14T09:38:54.076Z,23.77
2023-10-14T09:42:21.877Z,23.97
2023-10-14T09:45:51.733Z,24.01
2023-10-14T09:49:17.712Z,24.14
2023-10-14T09:52:45.421Z,24.26
2023-10-14T09:56:13.345Z,24.41
2023-10-14T09:59:41.454Z,24.61
2023-10-14T10:03:09.253Z,24.82
2023-10-14T10:06:37.982Z,25.00
2023-10-14T10:10:06.379Z,25.11
2023-10-14T10:13:34.335Z,25.23
2023-10-14T10:16:23.903Z,25.32
2023-10-14T10:19:51.603Z,25.39
2023-10-14T10:23:19.372Z,25.42
2023-10-14T10:26:47.116Z,25.47
2023-10-14T10:30:15.019Z,25.50
2023-10-14T10:33:25.160Z,25.64
2023-10-14T10:36:33.921Z,25.66
2023-10-14T10:39:25.889Z,25.73
2023-10-14T10:42:53.721Z,25.78
2023-10-14T10:46:21.549Z,25.89
2023-10-14T10:49:11.873Z,26.00
2023-10-14T10:52:20.358Z,26.18
2023-10-14T10:55:48.705Z,26.22
2023-10-14T10:59:16.527Z,26.31
2023-10-14T11:02:45.495Z,26.43
2023-10-14T11:06:13.716Z,26.60
2023-10-14T11:09:22.314Z,26.63
2023-10-14T11:12:30.655Z,26.75
2023-10-14T11:15:19.364Z,26.80
2023-10-14T11:18:47.808Z,26.88
2023-10-14T11:22:15.508Z,26.92
2023-10-14T11:25:43.352Z,27.10
2023-10-14T11:29:11.269Z,27.31
2023-10-14T11:32:39.179Z,27.46
2023-10-14T11:36:06.962Z,27.50
2023-10-14T11:38:40.450Z,27.60
2023-10-14T11:41:28.887Z,27.65
2023-10-14T11:44:37.770Z,27.55
2023-10-14T11:47:46.091Z,27.55
2023-10-14T11:51:13.725Z,27.61
2023-10-14T11:54:41.762Z,27.76
2023-10-14T11:57:50.200Z,27.81
2023-10-14T12:00:59.979Z,27.94
2023-10-14T12:04:08.813Z,28.06
2023-10-14T12:07:36.884Z,28.06
2023-10-14T12:10:26.589Z,28.01
2023-10-14T12:13:54.580Z,27.98
2023-10-14T12:17:03.025Z,27.94
2023-10-14T12:20:11.690Z,28.11
2023-10-14T12:23:39.649Z,28.20
2023-10-14T12:27:07.534Z,28.30
2023-10-14T12:30:16.356Z,28.42
2023-10-14T12:33:44.369Z,28.58
2023-10-14T12:36:53.378Z,28.67
2023-10-14T12:39:41.975Z,28.57
2023-10-14T12:43:09.782Z,28.72
2023-10-14T12:46:37.745Z,28.94
2023-10-14T12:49:45.855Z,29.08
2023-10-14T12:53:13.572Z,29.12
2023-10-14T12:56:01.485Z,29.25
2023-10-14T12:58:29.841Z,29.54
2023-10-14T13:01:57.731Z,29.84
2023-10-14T13:05:25.638Z,30.07
2023-10-14T13:08:34.282Z,30.15
2023-10-14T13:12:01.980Z,30.31
2023-10-14T13:14:59.298Z,30.36
2023-10-14T13:18:08.423Z,30.46
2023-10-14T13:21:18.375Z,30.53
2023-10-14T13:24:46.309Z,30.52
2023-10-14T13:27:14.567Z,30.66
2023-10-14T13:30:05.736Z,30.82
2023-10-14T13:32:56.883Z,30.85
2023-10-14T13:36:08.557Z,30.82
2023-10-14T13:38:56.681Z,30.90
2023-10-14T13:42:24.497Z,31.01
2023-10-14T13:45:33.114Z,31.10
2023-10-14T13:49:01.015Z,31.04
2023-10-14T13:52:28.886Z,31.11
2023-10-14T13:55:37.446Z,31.10
2023-10-14T13:58:46.288Z,31.10
2023-10-14T14:02:14.129Z,30.84
2023-10-14T14:05:42.140Z,30.47
2023-10-14T14:08:50.967Z,30.33
2023-10-14T14:11:40.726Z,30.49
2023-10-14T14:14:49.594Z,30.50
2023-10-14T14:18:17.331Z,30.29
2023-10-14T14:21:45.113Z,30.05
2023-10-14T14:25:12.840Z,29.49
2023-10-14T14:28:21.458Z,28.86
2023-10-14T14:31:49.552Z,28.52
2023-10-14T14:35:17.352Z,28.26
2023-10-14T14:38:26.052Z,28.47
2023-10-14T14:41:53.985Z,28.76
2023-10-14T14:45:02.694Z,28.88
2023-10-14T14:47:51.894Z,29.02
2023-10-14T14:51:01.831Z,29.24
2023-10-14T14:54:29.605Z,29.18
2023-10-14T14:57:57.510Z,29.17
2023-10-14T15:00:46.938Z,29.02
2023-10-14T15:03:35.583Z,28.84
2023-10-14T15:06:23.837Z,28.84
2023-10-14T15:09:32.084Z,28.77
2023-10-14T15:12:59.966Z,28.47
2023-10-14T15:16:40.791Z,28.37
2023-10-14T15:19:55.683Z,28.07
2023-10-14T15:23:04.280Z,27.85
2023-10-14T15:26:32.251Z,27.55
2023-10-14T15:29:01.102Z,27.30
2023-10-14T15:32:29.136Z,26.92
2023-10-14T15:35:37.813Z,26.52
2023-10-14T15:38:46.828Z,26.16
2023-10-14T15:42:14.486Z,25.76
2023-10-14T15:45:42.253Z,25.40
2023-10-14T15:49:10.163Z,25.15
2023-10-14T15:52:38.199Z,24.88
2023-10-14T15:56:06.129Z,24.62
2023-10-14T15:59:34.414Z,24.34
2023-10-14T16:03:02.356Z,24.14
2023-10-14T16:06:30.150Z,23.95
2023-10-14T16:09:58.098Z,23.78
2023-10-14T16:13:07.156Z,23.63
2023-10-14T16:16:34.989Z,23.42
2023-10-14T16:20:02.699Z,23.23
2023-10-14T16:23:30.458Z,23.07
2023-10-14T16:26:20.127Z,22.96
2023-10-14T16:29:28.488Z,22.85
2023-10-14T16:32:56.049Z,22.74
2023-10-14T16:36:04.848Z,22.62
2023-10-14T16:39:33.041Z,22.49
2023-10-14T16:42:49.844Z,22.40
2023-10-14T16:46:17.566Z,22.27
2023-10-14T16:49:33.456Z,22.15
2023-10-14T16:53:01.312Z,22.06
2023-10-14T16:56:30.615Z,21.97
2023-10-14T16:59:19.208Z,21.90
2023-10-14T17:02:49.500Z,21.84
2023-10-14T17:06:14.892Z,21.78
2023-10-14T17:09:23.011Z,21.70
2023-10-14T17:12:40.092Z,21.64
2023-10-14T17:15:29.644Z,21.57
2023-10-14T17:18:37.571Z,21.51
2023-10-14T17:21:25.500Z,21.45
2023-10-14T17:24:53.755Z,21.38
2023-10-14T17:27:45.015Z,21.32
2023-10-14T17:30:53.618Z,21.27
2023-10-14T17:34:03.612Z,21.22
2023-10-14T17:37:31.422Z,21.18
2023-10-14T17:40:59.232Z,21.10
2023-10-14T17:44:27.268Z,20.98
2023-10-14T17:47:55.331Z,20.87
2023-10-14T17:51:04.603Z,20.80
2023-10-14T17:54:32.544Z,20.72
2023-10-14T17:57:42.398Z,20.64
2023-10-14T18:00:51.336Z,20.56
2023-10-14T18:04:19.066Z,20.47
2023-10-14T18:07:29.755Z,20.40
2023-10-14T18:10:20.073Z,20.36
2023-10-14T18:13:28.794Z,20.32
2023-10-14T18:17:03.795Z,20.24
2023-10-14T18:20:24.494Z,20.17
2023-10-14T18:23:36.301Z,20.11
2023-10-14T18:27:04.239Z,20.04
2023-10-14T18:30:33.343Z,19.99
2023-10-14T18:33:41.270Z,19.97
2023-10-14T18:36:50.277Z,19.92
2023-10-14T18:40:18.269Z,19.87
2023-10-14T18:43:45.981Z,19.80
2023-10-14T18:47:14.150Z,19.73
2023-10-14T18:50:41.791Z,19.68
2023-10-14T18:53:49.609Z,19.63
2023-10-14T18:57:17.537Z,19.57
2023-10-14T19:00:26.812Z,19.51
2023-10-14T19:03:39.077Z,19.46
2023-10-14T19:07:07.029Z,19.41
2023-10-14T19:10:34.905Z,19.35
2023-10-14T19:14:02.788Z,19.29
2023-10-14T19:16:31.487Z,19.25
2023-10-14T19:19:59.829Z,19.20
2023-10-14T19:23:08.785Z,19.16
2023-10-14T19:26:38.919Z,19.11
2023-10-14T19:30:06.739Z,19.03
2023-10-14T19:33:34.583Z,18.96
2023-10-14T19:37:02.287Z,18.89
2023-10-14T19:40:31.622Z,18.84
2023-10-14T19:43:00.857Z,18.82
2023-10-14T19:46:28.702Z,18.80
2023-10-14T19:49:56.856Z,18.78
2023-10-14T19:53:05.410Z,18.76
2023-10-14T19:56:33.183Z,18.76
2023-10-14T20:00:00.952Z,18.70
2023-10-14T20:03:28.801Z,18.66
2023-10-14T20:06:37.349Z,18.63
2023-10-14T20:09:45.290Z,18.59
2023-10-14T20:13:13.508Z,18.55
2023-10-14T20:16:22.168Z,18.52
2023-10-14T20:19:50.045Z,18.49
2023-10-14T20:22:59.187Z,18.45
2023-10-14T20:26:07.138Z,18.43
2023-10-14T20:29:35.031Z,18.42
2023-10-14T20:33:02.782Z,18.39
2023-10-14T20:36:11.039Z,18.37
2023-10-14T20:39:20.679Z,18.36
2023-10-14T20:42:28.902Z,18.36
2023-10-14T20:45:57.907Z,18.39
2023-10-14T20:49:25.661Z,18.40
2023-10-14T20:52:53.540Z,18.41
2023-10-14T20:56:21.347Z,18.40
2023-10-14T20:59:50.320Z,18.39
2023-10-14T21:03:18.340Z,18.37
2023-10-14T21:06:27.119Z,18.39
2023-10-14T21:09:35.949Z,18.41
2023-10-14T21:13:03.621Z,18.42
2023-10-14T21:16:31.716Z,18.42
2023-10-14T21:19:59.511Z,18.35
2023-10-14T21:23:08.159Z,18.28
2023-10-14T21:26:17.632Z,18.23
2023-10-14T21:29:25.774Z,18.11
2023-10-14T21:32:34.961Z,18.05
2023-10-14T21:36:02.574Z,17.99
2023-10-14T21:39:10.909Z,17.97
2023-10-14T21:42:38.641Z,17.98
2023-10-14T21:46:10.828Z,17.87
2023-10-14T21:49:38.594Z,17.83
2023-10-14T21:53:07.135Z,17.77
2023-10-14T21:56:15.477Z,17.69
2023-10-14T21:59:43.106Z,17.59
2023-10-14T22:03:00.687Z,17.49
2023-10-14T22:05:37.204Z,17.43
2023-10-14T22:09:05.215Z,17.35
2023-10-14T22:11:55.094Z,17.29
2023-10-14T22:14:45.031Z,17.24
2023-10-14T22:18:13.093Z,17.20
2023-10-14T22:21:40.809Z,17.14
2023-10-14T22:25:08.635Z,17.12
2023-10-14T22:28:36.571Z,17.04
2023-10-14T22:32:04.572Z,16.96
2023-10-14T22:35:32.267Z,16.90
2023-10-14T22:39:00.095Z,16.90
2023-10-14T22:42:27.820Z,16.83
2023-10-14T22:45:55.665Z,16.76
2023-10-14T22:49:23.786Z,16.68
2023-10-14T22:52:51.507Z,16.59
2023-10-14T22:56:19.507Z,16.50
2023-10-14T22:59:27.536Z,16.43
2023-10-14T23:02:55.852Z,16.35
2023-10-14T23:06:23.655Z,16.29
2023-10-14T23:09:51.492Z,16.26
2023-10-14T23:13:19.615Z,16.21
2023-10-14T23:16:47.525Z,16.19
2023-10-14T23:20:15.380Z,16.13
2023-10-14T23:23:43.009Z,16.07
2023-10-14T23:27:10.983Z,16.02
2023-10-14T23:30:38.864Z,15.97
2023-10-14T23:33:09.604Z,15.91
2023-10-14T23:36:18.622Z,15.82
2023-10-14T23:39:24.637Z,15.78
2023-10-14T23:42:33.472Z,15.76
2023-10-14T23:45:43.575Z,15.75
2023-10-14T23:49:11.559Z,15.75
2023-10-14T23:52:39.424Z,15.77
2023-10-14T23:55:48.248Z,15.76
2023-10-14T23:58:56.454Z,15.73
